sensor_id;sensor_type;location;lat;lon;timestamp;temperature;humidity
40738;DHT22;54759;48.094;-1.628;2023-05-20T00:00:06;22.90;38.90
40738;DHT22;54759;48.094;-1.628;2023-05-20T00:03:07;23.00;38.80
40738;DHT22;54759;48.094;-1.628;2023-05-20T00:06:09;23.00;39.20
40738;DHT22;54759;48.094;-1.628;2023-05-20T00:09:10;22.80;39.00
40738;DHT22;54759;48.094;-1.628;2023-05-20T00:12:12;22.90;39.20
40738;DHT22;54759;48.094;-1.628;2023-05-20T00:15:14;22.90;39.20
40738;DHT22;54759;48.094;-1.628;2023-05-20T00:18:16;23.00;39.50
40738;DHT22;54759;48.094;-1.628;2023-05-20T00:21:17;22.40;39.20
40738;DHT22;54759;48.094;-1.628;2023-05-20T00:24:19;22.80;39.70
40738;DHT22;54759;48.094;-1.628;2023-05-20T00:27:21;22.70;39.50
40738;DHT22;54759;48.094;-1.628;2023-05-20T00:30:22;22.80;39.60
40738;DHT22;54759;48.094;-1.628;2023-05-20T00:33:24;22.70;39.80
40738;DHT22;54759;48.094;-1.628;2023-05-20T00:36:26;22.60;39.90
40738;DHT22;54759;48.094;-1.628;2023-05-20T00:39:29;22.70;40.00
40738;DHT22;54759;48.094;-1.628;2023-05-20T00:42:31;22.70;39.90
40738;DHT22;54759;48.094;-1.628;2023-05-20T00:45:32;22.50;40.00
40738;DHT22;54759;48.094;-1.628;2023-05-20T00:48:41;22.70;40.30
40738;DHT22;54759;48.094;-1.628;2023-05-20T00:51:44;22.70;40.20
40738;DHT22;54759;48.094;-1.628;2023-05-20T00:54:45;22.30;40.80
40738;DHT22;54759;48.094;-1.628;2023-05-20T00:57:48;22.70;40.30
40738;DHT22;54759;48.094;-1.628;2023-05-20T01:00:50;22.70;40.40
40738;DHT22;54759;48.094;-1.628;2023-05-20T01:03:52;22.50;40.30
40738;DHT22;54759;48.094;-1.628;2023-05-20T01:06:53;22.70;40.70
40738;DHT22;54759;48.094;-1.628;2023-05-20T01:09:56;22.60;40.40
40738;DHT22;54759;48.094;-1.628;2023-05-20T01:13:01;22.60;40.60
40738;DHT22;54759;48.094;-1.628;2023-05-20T01:16:07;22.50;40.60
40738;DHT22;54759;48.094;-1.628;2023-05-20T01:19:21;22.50;40.60
40738;DHT22;54759;48.094;-1.628;2023-05-20T01:22:28;22.40;41.00
40738;DHT22;54759;48.094;-1.628;2023-05-20T01:25:29;22.50;40.80
40738;DHT22;54759;48.094;-1.628;2023-05-20T01:28:31;22.60;40.90
40738;DHT22;54759;48.094;-1.628;2023-05-20T01:31:36;22.50;41.00
40738;DHT22;54759;48.094;-1.628;2023-05-20T01:34:40;22.40;41.00
40738;DHT22;54759;48.094;-1.628;2023-05-20T01:37:45;22.60;41.00
40738;DHT22;54759;48.094;-1.628;2023-05-20T01:40:49;22.50;41.10
40738;DHT22;54759;48.094;-1.628;2023-05-20T01:43:52;22.40;41.10
40738;DHT22;54759;48.094;-1.628;2023-05-20T01:46:53;22.60;41.40
40738;DHT22;54759;48.094;-1.628;2023-05-20T01:49:55;22.20;41.20
40738;DHT22;54759;48.094;-1.628;2023-05-20T01:52:57;22.40;41.30
40738;DHT22;54759;48.094;-1.628;2023-05-20T01:56:00;22.20;41.50
40738;DHT22;54759;48.094;-1.628;2023-05-20T01:59:01;22.50;41.50
40738;DHT22;54759;48.094;-1.628;2023-05-20T02:02:03;22.30;41.50
40738;DHT22;54759;48.094;-1.628;2023-05-20T02:05:05;22.10;41.60
40738;DHT22;54759;48.094;-1.628;2023-05-20T02:08:07;22.30;41.60
40738;DHT22;54759;48.094;-1.628;2023-05-20T02:11:08;22.30;41.60
40738;DHT22;54759;48.094;-1.628;2023-05-20T02:14:10;22.30;41.80
40738;DHT22;54759;48.094;-1.628;2023-05-20T02:17:12;22.30;41.80
40738;DHT22;54759;48.094;-1.628;2023-05-20T02:20:16;22.10;41.70
40738;DHT22;54759;48.094;-1.628;2023-05-20T02:23:21;22.40;41.90
40738;DHT22;54759;48.094;-1.628;2023-05-20T02:26:22;22.40;42.00
40738;DHT22;54759;48.094;-1.628;2023-05-20T02:29:25;22.40;42.00
40738;DHT22;54759;48.094;-1.628;2023-05-20T02:32:30;22.30;42.10
40738;DHT22;54759;48.094;-1.628;2023-05-20T02:35:36;22.20;42.00
40738;DHT22;54759;48.094;-1.628;2023-05-20T02:38:38;22.30;42.20
40738;DHT22;54759;48.094;-1.628;2023-05-20T02:41:40;22.30;42.20
40738;DHT22;54759;48.094;-1.628;2023-05-20T02:44:43;22.30;42.30
40738;DHT22;54759;48.094;-1.628;2023-05-20T02:47:44;22.40;42.50
40738;DHT22;54759;48.094;-1.628;2023-05-20T02:50:46;22.40;42.80
40738;DHT22;54759;48.094;-1.628;2023-05-20T02:53:48;22.10;42.40
40738;DHT22;54759;48.094;-1.628;2023-05-20T02:56:50;22.30;42.60
40738;DHT22;54759;48.094;-1.628;2023-05-20T02:59:52;22.30;42.50
40738;DHT22;54759;48.094;-1.628;2023-05-20T03:02:53;22.40;43.00
40738;DHT22;54759;48.094;-1.628;2023-05-20T03:05:55;21.70;42.40
40738;DHT22;54759;48.094;-1.628;2023-05-20T03:08:58;22.20;42.80
40738;DHT22;54759;48.094;-1.628;2023-05-20T03:12:02;22.20;42.90
40738;DHT22;54759;48.094;-1.628;2023-05-20T03:15:05;22.10;43.00
40738;DHT22;54759;48.094;-1.628;2023-05-20T03:18:10;22.30;42.90
40738;DHT22;54759;48.094;-1.628;2023-05-20T03:21:17;22.00;42.70
40738;DHT22;54759;48.094;-1.628;2023-05-20T03:24:21;22.30;42.90
40738;DHT22;54759;48.094;-1.628;2023-05-20T03:27:23;22.20;43.10
40738;DHT22;54759;48.094;-1.628;2023-05-20T03:30:26;22.20;42.70
40738;DHT22;54759;48.094;-1.628;2023-05-20T03:33:33;22.20;43.30
40738;DHT22;54759;48.094;-1.628;2023-05-20T03:36:35;22.40;43.10
40738;DHT22;54759;48.094;-1.628;2023-05-20T03:39:37;22.20;43.10
40738;DHT22;54759;48.094;-1.628;2023-05-20T03:42:41;22.10;42.90
40738;DHT22;54759;48.094;-1.628;2023-05-20T03:45:43;22.00;43.60
40738;DHT22;54759;48.094;-1.628;2023-05-20T03:48:44;22.10;43.10
40738;DHT22;54759;48.094;-1.628;2023-05-20T03:51:46;21.70;43.00
40738;DHT22;54759;48.094;-1.628;2023-05-20T03:54:49;22.00;43.10
40738;DHT22;54759;48.094;-1.628;2023-05-20T03:57:50;22.00;43.10
40738;DHT22;54759;48.094;-1.628;2023-05-20T04:00:52;22.00;43.10
40738;DHT22;54759;48.094;-1.628;2023-05-20T04:03:54;22.20;43.40
40738;DHT22;54759;48.094;-1.628;2023-05-20T04:06:55;22.10;43.50
40738;DHT22;54759;48.094;-1.628;2023-05-20T04:09:58;22.10;43.40
40738;DHT22;54759;48.094;-1.628;2023-05-20T04:13:00;21.70;43.10
40738;DHT22;54759;48.094;-1.628;2023-05-20T04:16:02;22.00;43.40
40738;DHT22;54759;48.094;-1.628;2023-05-20T04:19:05;21.80;43.20
40738;DHT22;54759;48.094;-1.628;2023-05-20T04:22:07;22.00;43.50
40738;DHT22;54759;48.094;-1.628;2023-05-20T04:25:09;22.00;43.40
40738;DHT22;54759;48.094;-1.628;2023-05-20T04:28:11;22.50;44.00
40738;DHT22;54759;48.094;-1.628;2023-05-20T04:31:14;22.00;43.60
40738;DHT22;54759;48.094;-1.628;2023-05-20T04:34:16;22.00;43.70
40738;DHT22;54759;48.094;-1.628;2023-05-20T04:37:20;22.10;43.50
40738;DHT22;54759;48.094;-1.628;2023-05-20T04:40:24;21.80;43.60
40738;DHT22;54759;48.094;-1.628;2023-05-20T04:43:28;22.00;43.60
40738;DHT22;54759;48.094;-1.628;2023-05-20T04:46:30;21.80;43.60
40738;DHT22;54759;48.094;-1.628;2023-05-20T04:49:32;21.90;43.70
40738;DHT22;54759;48.094;-1.628;2023-05-20T04:52:34;21.70;43.70
40738;DHT22;54759;48.094;-1.628;2023-05-20T04:55:36;22.10;43.90
40738;DHT22;54759;48.094;-1.628;2023-05-20T04:58:38;22.20;44.40
40738;DHT22;54759;48.094;-1.628;2023-05-20T05:01:41;21.90;43.90
40738;DHT22;54759;48.094;-1.628;2023-05-20T05:04:45;21.90;44.10
40738;DHT22;54759;48.094;-1.628;2023-05-20T05:07:47;22.00;44.10
40738;DHT22;54759;48.094;-1.628;2023-05-20T05:10:49;21.90;44.20
40738;DHT22;54759;48.094;-1.628;2023-05-20T05:13:51;22.30;44.40
40738;DHT22;54759;48.094;-1.628;2023-05-20T05:16:56;20.40;43.50
40738;DHT22;54759;48.094;-1.628;2023-05-20T05:20:01;21.90;44.40
40738;DHT22;54759;48.094;-1.628;2023-05-20T05:23:05;21.80;44.40
40738;DHT22;54759;48.094;-1.628;2023-05-20T05:26:07;21.90;44.50
40738;DHT22;54759;48.094;-1.628;2023-05-20T05:29:09;21.90;44.60
40738;DHT22;54759;48.094;-1.628;2023-05-20T05:32:12;21.80;44.50
40738;DHT22;54759;48.094;-1.628;2023-05-20T05:35:16;21.80;44.50
40738;DHT22;54759;48.094;-1.628;2023-05-20T05:38:17;21.90;44.60
40738;DHT22;54759;48.094;-1.628;2023-05-20T05:41:19;21.90;44.80
40738;DHT22;54759;48.094;-1.628;2023-05-20T05:44:21;21.80;44.60
40738;DHT22;54759;48.094;-1.628;2023-05-20T05:47:26;21.90;44.80
40738;DHT22;54759;48.094;-1.628;2023-05-20T05:50:34;22.00;44.80
40738;DHT22;54759;48.094;-1.628;2023-05-20T05:53:36;22.00;45.00
40738;DHT22;54759;48.094;-1.628;2023-05-20T05:56:38;21.90;44.90
40738;DHT22;54759;48.094;-1.628;2023-05-20T05:59:39;21.80;45.00
40738;DHT22;54759;48.094;-1.628;2023-05-20T06:02:42;21.80;45.10
40738;DHT22;54759;48.094;-1.628;2023-05-20T06:05:45;22.00;45.40
40738;DHT22;54759;48.094;-1.628;2023-05-20T06:08:47;22.00;45.30
40738;DHT22;54759;48.094;-1.628;2023-05-20T06:11:50;21.80;45.40
40738;DHT22;54759;48.094;-1.628;2023-05-20T06:14:51;21.90;45.40
40738;DHT22;54759;48.094;-1.628;2023-05-20T06:17:53;21.90;45.60
40738;DHT22;54759;48.094;-1.628;2023-05-20T06:20:55;22.00;45.50
40738;DHT22;54759;48.094;-1.628;2023-05-20T06:24:00;21.90;45.60
40738;DHT22;54759;48.094;-1.628;2023-05-20T06:27:02;22.00;45.90
40738;DHT22;54759;48.094;-1.628;2023-05-20T06:30:04;22.30;46.30
40738;DHT22;54759;48.094;-1.628;2023-05-20T06:33:06;21.90;45.70
40738;DHT22;54759;48.094;-1.628;2023-05-20T06:36:11;22.10;46.10
40738;DHT22;54759;48.094;-1.628;2023-05-20T06:39:12;21.90;45.90
40738;DHT22;54759;48.094;-1.628;2023-05-20T06:42:18;21.90;46.50
40738;DHT22;54759;48.094;-1.628;2023-05-20T06:45:25;21.90;46.30
40738;DHT22;54759;48.094;-1.628;2023-05-20T06:48:30;22.00;46.50
40738;DHT22;54759;48.094;-1.628;2023-05-20T06:51:34;22.00;46.50
40738;DHT22;54759;48.094;-1.628;2023-05-20T06:54:37;21.80;47.20
40738;DHT22;54759;48.094;-1.628;2023-05-20T06:57:46;21.90;46.70
40738;DHT22;54759;48.094;-1.628;2023-05-20T07:00:49;22.00;46.80
40738;DHT22;54759;48.094;-1.628;2023-05-20T07:03:50;22.10;46.90
40738;DHT22;54759;48.094;-1.628;2023-05-20T07:06:52;22.40;47.30
40738;DHT22;54759;48.094;-1.628;2023-05-20T07:09:54;22.10;46.80
40738;DHT22;54759;48.094;-1.628;2023-05-20T07:12:56;22.10;47.10
40738;DHT22;54759;48.094;-1.628;2023-05-20T07:15:57;21.80;46.70
40738;DHT22;54759;48.094;-1.628;2023-05-20T07:19:00;21.90;46.90
40738;DHT22;54759;48.094;-1.628;2023-05-20T07:22:02;22.10;47.10
40738;DHT22;54759;48.094;-1.628;2023-05-20T07:25:23;22.10;47.30
40738;DHT22;54759;48.094;-1.628;2023-05-20T07:28:28;22.00;47.10
40738;DHT22;54759;48.094;-1.628;2023-05-20T07:31:29;22.00;47.30
40738;DHT22;54759;48.094;-1.628;2023-05-20T07:34:31;22.00;47.30
40738;DHT22;54759;48.094;-1.628;2023-05-20T07:37:33;22.00;47.40
40738;DHT22;54759;48.094;-1.628;2023-05-20T07:40:36;22.10;47.40
40738;DHT22;54759;48.094;-1.628;2023-05-20T08:05:30;22.20;46.20
40738;DHT22;54759;48.094;-1.628;2023-05-20T08:15:29;22.00;46.20
40738;DHT22;54759;48.094;-1.628;2023-05-20T08:18:31;22.10;47.70
40738;DHT22;54759;48.094;-1.628;2023-05-20T08:21:34;22.10;47.90
40738;DHT22;54759;48.094;-1.628;2023-05-20T08:24:38;22.30;48.00
40738;DHT22;54759;48.094;-1.628;2023-05-20T08:27:40;19.20;47.20
40738;DHT22;54759;48.094;-1.628;2023-05-20T08:30:42;22.10;48.00
40738;DHT22;54759;48.094;-1.628;2023-05-20T08:33:44;22.30;48.20
40738;DHT22;54759;48.094;-1.628;2023-05-20T08:36:46;22.20;47.90
40738;DHT22;54759;48.094;-1.628;2023-05-20T08:39:48;22.30;48.10
40738;DHT22;54759;48.094;-1.628;2023-05-20T08:42:50;22.40;48.00
40738;DHT22;54759;48.094;-1.628;2023-05-20T08:45:52;22.40;48.10
40738;DHT22;54759;48.094;-1.628;2023-05-20T08:48:56;22.30;48.10
40738;DHT22;54759;48.094;-1.628;2023-05-20T08:52:00;22.40;48.20
40738;DHT22;54759;48.094;-1.628;2023-05-20T08:55:01;22.30;47.90
40738;DHT22;54759;48.094;-1.628;2023-05-20T08:58:05;22.30;48.00
40738;DHT22;54759;48.094;-1.628;2023-05-20T09:01:07;22.30;48.10
40738;DHT22;54759;48.094;-1.628;2023-05-20T09:04:08;21.90;47.90
40738;DHT22;54759;48.094;-1.628;2023-05-20T09:07:10;22.30;48.10
40738;DHT22;54759;48.094;-1.628;2023-05-20T09:10:12;22.00;47.90
40738;DHT22;54759;48.094;-1.628;2023-05-20T09:13:14;22.00;47.90
40738;DHT22;54759;48.094;-1.628;2023-05-20T09:16:15;22.40;48.30
40738;DHT22;54759;48.094;-1.628;2023-05-20T09:19:17;22.20;48.00
40738;DHT22;54759;48.094;-1.628;2023-05-20T09:22:23;22.40;48.30
40738;DHT22;54759;48.094;-1.628;2023-05-20T09:25:24;22.50;48.30
40738;DHT22;54759;48.094;-1.628;2023-05-20T09:28:26;22.40;48.50
40738;DHT22;54759;48.094;-1.628;2023-05-20T09:31:29;22.40;48.60
40738;DHT22;54759;48.094;-1.628;2023-05-20T09:34:32;22.40;48.20
40738;DHT22;54759;48.094;-1.628;2023-05-20T09:37:36;22.10;48.30
40738;DHT22;54759;48.094;-1.628;2023-05-20T09:40:41;22.40;48.30
40738;DHT22;54759;48.094;-1.628;2023-05-20T09:43:44;22.50;48.30
40738;DHT22;54759;48.094;-1.628;2023-05-20T09:46:46;22.00;48.20
40738;DHT22;54759;48.094;-1.628;2023-05-20T09:49:52;22.40;48.30
40738;DHT22;54759;48.094;-1.628;2023-05-20T09:52:54;22.60;48.50
40738;DHT22;54759;48.094;-1.628;2023-05-20T09:55:56;22.20;48.30
40738;DHT22;54759;48.094;-1.628;2023-05-20T09:58:58;22.70;48.50
40738;DHT22;54759;48.094;-1.628;2023-05-20T10:02:00;22.70;48.40
40738;DHT22;54759;48.094;-1.628;2023-05-20T10:05:05;22.50;48.40
40738;DHT22;54759;48.094;-1.628;2023-05-20T10:08:22;22.40;48.10
40738;DHT22;54759;48.094;-1.628;2023-05-20T10:11:32;22.70;48.30
40738;DHT22;54759;48.094;-1.628;2023-05-20T10:14:50;22.50;48.10
40738;DHT22;54759;48.094;-1.628;2023-05-20T10:18:04;22.70;48.30
40738;DHT22;54759;48.094;-1.628;2023-05-20T10:21:14;22.50;48.00
40738;DHT22;54759;48.094;-1.628;2023-05-20T10:24:28;22.70;48.10
40738;DHT22;54759;48.094;-1.628;2023-05-20T10:27:41;22.70;48.10
40738;DHT22;54759;48.094;-1.628;2023-05-20T10:30:48;22.10;47.70
40738;DHT22;54759;48.094;-1.628;2023-05-20T10:33:52;22.40;47.80
40738;DHT22;54759;48.094;-1.628;2023-05-20T10:36:57;22.80;47.80
40738;DHT22;54759;48.094;-1.628;2023-05-20T10:40:06;22.20;47.50
40738;DHT22;54759;48.094;-1.628;2023-05-20T10:43:09;22.60;47.60
40738;DHT22;54759;48.094;-1.628;2023-05-20T10:46:18;22.70;47.50
40738;DHT22;54759;48.094;-1.628;2023-05-20T10:49:40;22.40;47.30
40738;DHT22;54759;48.094;-1.628;2023-05-20T10:52:44;22.80;47.50
40738;DHT22;54759;48.094;-1.628;2023-05-20T10:55:50;22.90;47.50
40738;DHT22;54759;48.094;-1.628;2023-05-20T10:58:53;22.60;47.20
40738;DHT22;54759;48.094;-1.628;2023-05-20T11:01:55;22.60;47.10
40738;DHT22;54759;48.094;-1.628;2023-05-20T11:04:56;22.70;47.20
40738;DHT22;54759;48.094;-1.628;2023-05-20T11:08:00;22.70;47.10
40738;DHT22;54759;48.094;-1.628;2023-05-20T11:11:05;22.90;47.10
40738;DHT22;54759;48.094;-1.628;2023-05-20T11:14:08;22.90;46.90
40738;DHT22;54759;48.094;-1.628;2023-05-20T11:17:13;22.90;46.60
40738;DHT22;54759;48.094;-1.628;2023-05-20T11:20:15;22.20;46.40
40738;DHT22;54759;48.094;-1.628;2023-05-20T11:23:17;22.60;46.40
40738;DHT22;54759;48.094;-1.628;2023-05-20T11:26:20;22.40;46.30
40738;DHT22;54759;48.094;-1.628;2023-05-20T11:29:22;22.90;46.50
40738;DHT22;54759;48.094;-1.628;2023-05-20T11:32:26;22.90;46.20
40738;DHT22;54759;48.094;-1.628;2023-05-20T11:35:29;21.60;45.50
40738;DHT22;54759;48.094;-1.628;2023-05-20T11:38:31;23.00;46.10
40738;DHT22;54759;48.094;-1.628;2023-05-20T11:41:33;22.80;46.00
40738;DHT22;54759;48.094;-1.628;2023-05-20T11:44:35;23.10;46.50
40738;DHT22;54759;48.094;-1.628;2023-05-20T11:47:37;23.10;46.00
40738;DHT22;54759;48.094;-1.628;2023-05-20T11:50:40;23.00;46.00
40738;DHT22;54759;48.094;-1.628;2023-05-20T11:53:46;23.10;45.80
40738;DHT22;54759;48.094;-1.628;2023-05-20T11:56:49;22.70;46.10
40738;DHT22;54759;48.094;-1.628;2023-05-20T11:59:50;22.80;45.50
40738;DHT22;54759;48.094;-1.628;2023-05-20T12:02:53;23.00;45.70
40738;DHT22;54759;48.094;-1.628;2023-05-20T12:05:54;23.10;45.60
40738;DHT22;54759;48.094;-1.628;2023-05-20T12:08:59;23.20;45.60
40738;DHT22;54759;48.094;-1.628;2023-05-20T12:12:07;23.10;45.30
40738;DHT22;54759;48.094;-1.628;2023-05-20T12:15:11;22.90;45.10
40738;DHT22;54759;48.094;-1.628;2023-05-20T12:18:12;23.30;45.10
40738;DHT22;54759;48.094;-1.628;2023-05-20T12:21:14;23.30;48.10
40738;DHT22;54759;48.094;-1.628;2023-05-20T12:24:15;23.10;49.80
40738;DHT22;54759;48.094;-1.628;2023-05-20T12:27:17;23.30;44.50
40738;DHT22;54759;48.094;-1.628;2023-05-20T12:30:22;22.80;43.80
40738;DHT22;54759;48.094;-1.628;2023-05-20T12:33:23;23.20;43.80
40738;DHT22;54759;48.094;-1.628;2023-05-20T12:36:25;23.20;43.90
40738;DHT22;54759;48.094;-1.628;2023-05-20T12:39:27;23.30;44.00
40738;DHT22;54759;48.094;-1.628;2023-05-20T12:42:29;23.40;43.90
40738;DHT22;54759;48.094;-1.628;2023-05-20T12:45:33;23.40;44.10
40738;DHT22;54759;48.094;-1.628;2023-05-20T12:48:35;23.40;42.90
40738;DHT22;54759;48.094;-1.628;2023-05-20T12:51:36;22.80;43.40
40738;DHT22;54759;48.094;-1.628;2023-05-20T12:54:41;23.10;43.50
40738;DHT22;54759;48.094;-1.628;2023-05-20T12:57:43;23.30;44.00
40738;DHT22;54759;48.094;-1.628;2023-05-20T13:00:47;23.40;43.70
40738;DHT22;54759;48.094;-1.628;2023-05-20T13:03:49;23.20;43.70
40738;DHT22;54759;48.094;-1.628;2023-05-20T13:06:53;23.10;44.00
40738;DHT22;54759;48.094;-1.628;2023-05-20T13:09:54;23.60;43.90
40738;DHT22;54759;48.094;-1.628;2023-05-20T13:12:58;23.50;44.70
40738;DHT22;54759;48.094;-1.628;2023-05-20T13:16:01;23.50;44.90
40738;DHT22;54759;48.094;-1.628;2023-05-20T13:19:06;23.50;42.10
40738;DHT22;54759;48.094;-1.628;2023-05-20T13:22:08;23.60;41.50
40738;DHT22;54759;48.094;-1.628;2023-05-20T13:25:12;23.60;41.90
40738;DHT22;54759;48.094;-1.628;2023-05-20T13:28:14;23.70;42.00
40738;DHT22;54759;48.094;-1.628;2023-05-20T13:31:20;23.80;41.90
40738;DHT22;54759;48.094;-1.628;2023-05-20T13:34:22;23.50;41.60
40738;DHT22;54759;48.094;-1.628;2023-05-20T13:37:24;23.60;41.50
40738;DHT22;54759;48.094;-1.628;2023-05-20T13:40:25;23.60;41.50
40738;DHT22;54759;48.094;-1.628;2023-05-20T13:43:27;23.70;41.50
40738;DHT22;54759;48.094;-1.628;2023-05-20T13:46:29;23.30;41.30
40738;DHT22;54759;48.094;-1.628;2023-05-20T13:49:31;23.30;41.40
40738;DHT22;54759;48.094;-1.628;2023-05-20T13:52:32;23.70;41.60
40738;DHT22;54759;48.094;-1.628;2023-05-20T13:55:34;23.40;41.40
40738;DHT22;54759;48.094;-1.628;2023-05-20T13:58:37;23.40;41.40
40738;DHT22;54759;48.094;-1.628;2023-05-20T14:01:38;23.70;41.50
40738;DHT22;54759;48.094;-1.628;2023-05-20T14:04:44;23.70;41.40
40738;DHT22;54759;48.094;-1.628;2023-05-20T14:07:47;23.70;41.40
40738;DHT22;54759;48.094;-1.628;2023-05-20T14:10:49;23.70;41.40
40738;DHT22;54759;48.094;-1.628;2023-05-20T14:13:55;23.90;41.50
40738;DHT22;54759;48.094;-1.628;2023-05-20T14:16:59;23.70;41.30
40738;DHT22;54759;48.094;-1.628;2023-05-20T14:20:00;23.80;41.40
40738;DHT22;54759;48.094;-1.628;2023-05-20T14:23:02;23.90;41.30
40738;DHT22;54759;48.094;-1.628;2023-05-20T14:26:03;23.90;41.20
40738;DHT22;54759;48.094;-1.628;2023-05-20T14:29:07;23.40;40.90
40738;DHT22;54759;48.094;-1.628;2023-05-20T14:32:08;24.00;41.20
40738;DHT22;54759;48.094;-1.628;2023-05-20T14:35:11;23.90;41.30
40738;DHT22;54759;48.094;-1.628;2023-05-20T14:38:12;23.90;41.30
40738;DHT22;54759;48.094;-1.628;2023-05-20T14:41:14;24.10;41.40
40738;DHT22;54759;48.094;-1.628;2023-05-20T14:44:16;24.00;41.30
40738;DHT22;54759;48.094;-1.628;2023-05-20T14:47:18;24.00;41.20
40738;DHT22;54759;48.094;-1.628;2023-05-20T14:50:22;23.90;41.80
40738;DHT22;54759;48.094;-1.628;2023-05-20T14:53:24;24.00;41.10
40738;DHT22;54759;48.094;-1.628;2023-05-20T14:56:26;24.10;41.00
40738;DHT22;54759;48.094;-1.628;2023-05-20T14:59:31;24.10;41.10
40738;DHT22;54759;48.094;-1.628;2023-05-20T15:02:33;24.10;41.40
40738;DHT22;54759;48.094;-1.628;2023-05-20T15:05:34;24.20;41.10
40738;DHT22;54759;48.094;-1.628;2023-05-20T15:08:39;24.20;41.10
40738;DHT22;54759;48.094;-1.628;2023-05-20T15:11:43;24.20;41.10
40738;DHT22;54759;48.094;-1.628;2023-05-20T15:14:45;24.20;41.10
40738;DHT22;54759;48.094;-1.628;2023-05-20T15:17:47;23.80;40.90
40738;DHT22;54759;48.094;-1.628;2023-05-20T15:20:49;24.10;41.20
40738;DHT22;54759;48.094;-1.628;2023-05-20T15:23:50;24.20;41.30
40738;DHT22;54759;48.094;-1.628;2023-05-20T15:26:54;24.20;41.20
40738;DHT22;54759;48.094;-1.628;2023-05-20T15:29:59;24.20;41.90
40738;DHT22;54759;48.094;-1.628;2023-05-20T15:33:01;24.30;41.30
40738;DHT22;54759;48.094;-1.628;2023-05-20T15:36:03;24.00;41.20
40738;DHT22;54759;48.094;-1.628;2023-05-20T15:39:08;24.40;41.30
40738;DHT22;54759;48.094;-1.628;2023-05-20T15:42:09;24.30;41.20
40738;DHT22;54759;48.094;-1.628;2023-05-20T15:45:14;24.30;41.30
40738;DHT22;54759;48.094;-1.628;2023-05-20T15:48:16;24.10;41.30
40738;DHT22;54759;48.094;-1.628;2023-05-20T15:51:20;24.20;41.40
40738;DHT22;54759;48.094;-1.628;2023-05-20T15:54:21;24.30;41.50
40738;DHT22;54759;48.094;-1.628;2023-05-20T15:57:23;24.30;41.60
40738;DHT22;54759;48.094;-1.628;2023-05-20T16:00:25;24.30;41.80
40738;DHT22;54759;48.094;-1.628;2023-05-20T16:03:27;24.20;41.80
40738;DHT22;54759;48.094;-1.628;2023-05-20T16:06:30;24.20;41.90
40738;DHT22;54759;48.094;-1.628;2023-05-20T16:09:32;24.30;42.00
40738;DHT22;54759;48.094;-1.628;2023-05-20T16:12:34;24.20;42.10
40738;DHT22;54759;48.094;-1.628;2023-05-20T16:15:36;24.10;42.10
40738;DHT22;54759;48.094;-1.628;2023-05-20T16:18:38;24.10;42.10
40738;DHT22;54759;48.094;-1.628;2023-05-20T16:21:39;24.20;42.30
40738;DHT22;54759;48.094;-1.628;2023-05-20T16:24:44;24.20;42.20
40738;DHT22;54759;48.094;-1.628;2023-05-20T16:27:50;24.20;42.30
40738;DHT22;54759;48.094;-1.628;2023-05-20T16:30:52;24.20;42.40
40738;DHT22;54759;48.094;-1.628;2023-05-20T16:33:54;24.20;42.50
40738;DHT22;54759;48.094;-1.628;2023-05-20T16:36:56;24.40;42.60
40738;DHT22;54759;48.094;-1.628;2023-05-20T16:39:57;24.20;42.40
40738;DHT22;54759;48.094;-1.628;2023-05-20T16:42:59;24.30;42.50
40738;DHT22;54759;48.094;-1.628;2023-05-20T16:46:04;24.20;42.50
40738;DHT22;54759;48.094;-1.628;2023-05-20T16:49:06;24.20;42.60
40738;DHT22;54759;48.094;-1.628;2023-05-20T16:52:08;24.20;42.70
40738;DHT22;54759;48.094;-1.628;2023-05-20T16:55:12;24.30;42.80
40738;DHT22;54759;48.094;-1.628;2023-05-20T16:58:14;24.20;42.70
40738;DHT22;54759;48.094;-1.628;2023-05-20T17:01:16;24.10;42.80
40738;DHT22;54759;48.094;-1.628;2023-05-20T17:04:17;24.20;42.90
40738;DHT22;54759;48.094;-1.628;2023-05-20T17:07:19;24.20;43.00
40738;DHT22;54759;48.094;-1.628;2023-05-20T17:10:21;22.90;42.80
40738;DHT22;54759;48.094;-1.628;2023-05-20T17:13:23;24.30;43.10
40738;DHT22;54759;48.094;-1.628;2023-05-20T17:16:25;24.20;43.10
40738;DHT22;54759;48.094;-1.628;2023-05-20T17:19:30;24.20;42.70
40738;DHT22;54759;48.094;-1.628;2023-05-20T17:22:31;24.50;43.20
40738;DHT22;54759;48.094;-1.628;2023-05-20T17:25:36;23.80;43.00
40738;DHT22;54759;48.094;-1.628;2023-05-20T17:28:37;24.00;43.00
40738;DHT22;54759;48.094;-1.628;2023-05-20T17:31:40;24.10;43.20
40738;DHT22;54759;48.094;-1.628;2023-05-20T17:34:42;24.20;43.30
40738;DHT22;54759;48.094;-1.628;2023-05-20T17:37:43;24.20;43.40
40738;DHT22;54759;48.094;-1.628;2023-05-20T17:40:45;24.30;43.40
40738;DHT22;54759;48.094;-1.628;2023-05-20T17:43:46;24.20;43.30
40738;DHT22;54759;48.094;-1.628;2023-05-20T17:46:48;25.40;44.00
40738;DHT22;54759;48.094;-1.628;2023-05-20T17:49:51;24.20;43.30
40738;DHT22;54759;48.094;-1.628;2023-05-20T17:52:52;24.20;43.20
40738;DHT22;54759;48.094;-1.628;2023-05-20T17:55:56;24.30;43.30
40738;DHT22;54759;48.094;-1.628;2023-05-20T17:58:58;24.40;43.40
40738;DHT22;54759;48.094;-1.628;2023-05-20T18:02:00;24.20;43.30
40738;DHT22;54759;48.094;-1.628;2023-05-20T18:05:02;24.20;42.80
40738;DHT22;54759;48.094;-1.628;2023-05-20T18:08:04;24.30;43.30
40738;DHT22;54759;48.094;-1.628;2023-05-20T18:11:06;24.20;43.10
40738;DHT22;54759;48.094;-1.628;2023-05-20T18:14:07;23.90;43.00
40738;DHT22;54759;48.094;-1.628;2023-05-20T18:17:09;24.10;43.10
40738;DHT22;54759;48.094;-1.628;2023-05-20T18:20:12;24.30;43.20
40738;DHT22;54759;48.094;-1.628;2023-05-20T18:23:14;24.30;43.00
40738;DHT22;54759;48.094;-1.628;2023-05-20T18:26:16;24.10;43.10
40738;DHT22;54759;48.094;-1.628;2023-05-20T18:29:17;24.20;43.10
40738;DHT22;54759;48.094;-1.628;2023-05-20T18:32:20;23.80;42.90
40738;DHT22;54759;48.094;-1.628;2023-05-20T18:35:26;24.10;43.40
40738;DHT22;54759;48.094;-1.628;2023-05-20T18:38:27;24.20;43.00
40738;DHT22;54759;48.094;-1.628;2023-05-20T18:41:29;24.30;43.10
40738;DHT22;54759;48.094;-1.628;2023-05-20T18:44:46;24.20;43.20
40738;DHT22;54759;48.094;-1.628;2023-05-20T18:47:48;24.30;43.10
40738;DHT22;54759;48.094;-1.628;2023-05-20T18:50:55;24.20;43.20
40738;DHT22;54759;48.094;-1.628;2023-05-20T18:53:56;24.20;43.10
40738;DHT22;54759;48.094;-1.628;2023-05-20T18:56:58;24.20;43.10
40738;DHT22;54759;48.094;-1.628;2023-05-20T18:59:59;24.20;43.10
40738;DHT22;54759;48.094;-1.628;2023-05-20T19:03:04;24.20;42.80
40738;DHT22;54759;48.094;-1.628;2023-05-20T19:06:06;23.70;72.20
40738;DHT22;54759;48.094;-1.628;2023-05-20T19:09:07;24.10;45.40
40738;DHT22;54759;48.094;-1.628;2023-05-20T19:12:09;24.20;42.70
40738;DHT22;54759;48.094;-1.628;2023-05-20T19:15:12;24.20;42.70
40738;DHT22;54759;48.094;-1.628;2023-05-20T19:18:16;24.10;42.40
40738;DHT22;54759;48.094;-1.628;2023-05-20T19:21:18;24.30;42.50
40738;DHT22;54759;48.094;-1.628;2023-05-20T19:24:19;24.20;42.40